Time;durP1;ratioP1;P1;durP2;ratioP2;P2;SDS_P1;SDS_P2;PMS_P1;PMS_P2;Temp;Humidity;BMP_temperature;BMP_pressure;BME280_temperature;BME280_humidity;BME280_pressure;Samples;Min_cycle;Max_cycle;Signal;HPM_P1;HPM_P2
2022/11/26 00:01:13;;;;;;;26.80;3.15;;;8.40;99.90;;;;;;5053040;28;20072;-91
2022/11/26 00:03:39;;;;;;;18.65;2.92;;;8.40;99.90;;;;;;5053001;28;20021;-91
2022/11/26 00:06:13;;;;;;;23.48;2.85;;;8.40;99.90;;;;;;5052922;28;20033;-92
2022/11/26 00:08:39;;;;;;;26.58;3.17;;;8.40;99.90;;;;;;5052936;28;20424;-93
2022/11/26 00:11:12;;;;;;;20.10;2.58;;;8.40;99.90;;;;;;5052643;28;20029;-93
2022/11/26 00:13:37;;;;;;;16.17;2.42;;;8.40;99.90;;;;;;5054124;28;20032;-95
2022/11/26 00:16:03;;;;;;;24.55;3.40;;;8.40;99.90;;;;;;5069833;28;20032;-93
2022/11/26 00:18:29;;;;;;;19.02;4.10;;;8.40;99.90;;;;;;5052674;28;20071;-92
2022/11/26 00:20:59;;;;;;;20.33;3.65;;;8.40;99.90;;;;;;5052647;28;20079;-91
2022/11/26 00:23:27;;;;;;;26.35;2.88;;;8.40;99.90;;;;;;5052367;28;20057;-93
2022/11/26 00:25:58;;;;;;;17.02;1.95;;;8.40;99.90;;;;;;5053677;28;20043;-92
2022/11/26 00:28:31;;;;;;;38.83;5.30;;;8.40;99.90;;;;;;5052319;28;20056;-90
2022/11/26 00:30:59;;;;;;;20.50;2.35;;;8.40;99.90;;;;;;5052638;28;20060;-92
2022/11/26 00:33:26;;;;;;;22.90;2.95;;;8.40;99.90;;;;;;5069142;28;20029;-92
2022/11/26 00:35:56;;;;;;;21.48;3.55;;;8.50;99.90;;;;;;5053688;28;20029;-93
2022/11/26 00:38:23;;;;;;;29.52;2.83;;;8.50;99.90;;;;;;5068959;28;20630;-92
2022/11/26 00:40:48;;;;;;;25.45;3.25;;;8.50;99.90;;;;;;5053203;28;20033;-91
2022/11/26 00:43:16;;;;;;;23.20;2.58;;;8.50;99.90;;;;;;5055804;28;20388;-92
2022/11/26 00:45:42;;;;;;;29.60;4.13;;;8.50;99.90;;;;;;5055446;28;20021;-93
2022/11/26 00:48:08;;;;;;;30.88;3.10;;;8.50;99.90;;;;;;5055925;28;20036;-92
2022/11/26 00:50:39;;;;;;;20.83;2.67;;;8.60;99.90;;;;;;5055421;28;20029;-91
2022/11/26 00:53:05;;;;;;;22.70;3.50;;;8.60;99.90;;;;;;5055197;28;20045;-91
2022/11/26 00:55:35;;;;;;;22.33;2.67;;;8.60;99.90;;;;;;5072216;28;20462;-91
2022/11/26 00:58:01;;;;;;;26.10;2.55;;;8.60;99.90;;;;;;5056155;28;20029;-92
2022/11/26 01:00:30;;;;;;;21.65;2.42;;;8.60;99.90;;;;;;5055101;28;20052;-91
2022/11/26 01:02:56;;;;;;;20.77;2.45;;;8.60;99.90;;;;;;5055277;28;20049;-92
2022/11/26 01:05:25;;;;;;;21.92;2.25;;;8.60;99.90;;;;;;5055238;28;20029;-91
2022/11/26 01:07:51;;;;;;;16.52;3.00;;;8.60;99.90;;;;;;5055310;28;20115;-92
2022/11/26 01:10:23;;;;;;;18.80;2.53;;;8.60;99.90;;;;;;5071973;28;20029;-92
2022/11/26 01:12:49;;;;;;;21.20;2.47;;;8.60;99.90;;;;;;5056442;28;20116;-93
2022/11/26 01:15:16;;;;;;;20.05;3.28;;;8.60;99.90;;;;;;5055144;28;20082;-93
2022/11/26 01:17:42;;;;;;;22.10;3.58;;;8.60;99.90;;;;;;5054765;28;20094;-92
2022/11/26 01:20:27;;;;;;;18.73;3.70;;;8.60;99.90;;;;;;5055442;28;20502;-92
2022/11/26 01:22:55;;;;;;;23.95;3.15;;;8.60;99.90;;;;;;5055570;28;20032;-93
2022/11/26 01:25:22;;;;;;;24.55;2.65;;;8.60;99.90;;;;;;5055125;28;20123;-93
2022/11/26 01:27:48;;;;;;;25.52;3.67;;;8.60;99.90;;;;;;5055678;28;20028;-90
2022/11/26 01:30:28;;;;;;;24.63;3.13;;;8.60;99.90;;;;;;5054623;28;20163;-93
2022/11/26 01:32:54;;;;;;;16.55;2.85;;;8.60;99.90;;;;;;5054714;28;20052;-93
2022/11/26 01:35:21;;;;;;;16.75;2.20;;;8.60;99.90;;;;;;5054766;28;20021;-90
2022/11/26 01:37:47;;;;;;;18.10;2.70;;;8.60;99.90;;;;;;5054794;28;20128;-94
2022/11/26 01:40:48;;;;;;;20.10;2.50;;;8.60;99.90;;;;;;5054531;28;20059;-92
2022/11/26 01:43:38;;;;;;;19.45;2.15;;;8.60;99.90;;;;;;5051837;28;20114;-93
2022/11/26 01:46:17;;;;;;;14.60;2.08;;;8.60;99.90;;;;;;5070743;28;20035;-89
2022/11/26 01:48:43;;;;;;;21.45;2.47;;;8.60;99.90;;;;;;5053903;28;20112;-92
2022/11/26 01:51:10;;;;;;;25.00;2.80;;;8.60;99.90;;;;;;5053470;28;20021;-90
2022/11/26 01:53:52;;;;;;;19.17;3.15;;;8.60;99.90;;;;;;5055338;28;20028;-93
2022/11/26 01:56:23;;;;;;;23.85;3.42;;;8.60;99.90;;;;;;5054552;28;20033;-90
2022/11/26 01:58:55;;;;;;;18.73;3.22;;;8.50;99.90;;;;;;5054083;28;20037;-93
2022/11/26 02:01:20;;;;;;;14.80;2.28;;;8.50;99.90;;;;;;5054973;28;20072;-92
2022/11/26 02:04:10;;;;;;;24.67;3.33;;;8.50;99.90;;;;;;5054163;28;20064;-93
2022/11/26 02:06:35;;;;;;;19.23;3.72;;;8.50;99.90;;;;;;5053897;28;20436;-92
2022/11/26 02:09:04;;;;;;;20.95;3.05;;;8.50;99.90;;;;;;5053840;28;20029;-92
2022/11/26 02:11:30;;;;;;;20.00;3.95;;;8.50;99.90;;;;;;5061165;28;20025;-94
2022/11/26 02:14:02;;;;;;;20.98;2.60;;;8.50;99.90;;;;;;5058764;28;20097;-93
2022/11/26 02:16:39;;;;;;;19.63;2.67;;;8.40;99.90;;;;;;5059310;28;20032;-93
2022/11/26 02:19:35;;;;;;;20.20;3.10;;;8.40;99.90;;;;;;5056280;28;20033;-93
2022/11/26 02:22:28;;;;;;;18.00;2.65;;;8.40;99.90;;;;;;5055764;28;20049;-94
2022/11/26 02:25:31;;;;;;;15.10;1.92;;;8.40;99.90;;;;;;5054202;28;20079;-94
2022/11/26 02:28:37;;;;;;;23.27;2.53;;;8.40;99.90;;;;;;5054636;28;20027;-94
2022/11/26 02:31:15;;;;;;;21.75;4.55;;;8.40;99.90;;;;;;5054397;28;20104;-93
2022/11/26 02:33:41;;;;;;;17.42;2.75;;;8.30;99.90;;;;;;5070980;28;20475;-93
2022/11/26 02:36:15;;;;;;;19.60;2.30;;;8.30;99.90;;;;;;5053694;28;20025;-93
2022/11/26 02:38:41;;;;;;;10.70;1.85;;;8.30;99.90;;;;;;5053185;28;20471;-94
2022/11/26 02:41:08;;;;;;;14.02;2.17;;;8.30;99.90;;;;;;5069840;28;20053;-94
2022/11/26 02:43:35;;;;;;;21.75;2.45;;;8.30;99.90;;;;;;5053088;28;20025;-94
2022/11/26 02:46:08;;;;;;;10.48;1.67;;;8.30;99.90;;;;;;5053092;28;20021;-94
2022/11/26 02:48:38;;;;;;;20.88;3.00;;;8.20;99.90;;;;;;5053303;28;20048;-95
2022/11/26 02:51:16;;;;;;;8.32;1.80;;;8.20;99.90;;;;;;5052735;28;20032;-94
2022/11/26 02:53:45;;;;;;;16.17;2.83;;;8.20;99.90;;;;;;5054118;28;20017;-94
2022/11/26 02:56:16;;;;;;;14.50;2.33;;;8.20;99.90;;;;;;5052879;28;20120;-94
2022/11/26 02:58:43;;;;;;;17.45;2.47;;;8.20;99.90;;;;;;5052519;28;20045;-93
2022/11/26 03:01:14;;;;;;;10.38;2.10;;;8.20;99.90;;;;;;5052123;28;20045;-94
2022/11/26 03:03:45;;;;;;;16.20;2.22;;;8.30;99.90;;;;;;5052818;28;20025;-93
2022/11/26 03:06:13;;;;;;;26.77;2.78;;;8.30;99.90;;;;;;5052992;28;20095;-92
2022/11/26 03:08:39;;;;;;;22.10;2.95;;;8.30;99.90;;;;;;5053890;28;20021;-91
2022/11/26 03:11:05;;;;;;;28.58;2.55;;;8.40;99.90;;;;;;5052919;28;20032;-93
2022/11/26 03:13:31;;;;;;;19.52;4.85;;;8.40;99.90;;;;;;5053126;28;20029;-92
2022/11/26 03:15:57;;;;;;;14.95;2.88;;;8.40;99.90;;;;;;5052770;28;20063;-93
2022/11/26 03:18:23;;;;;;;15.80;2.40;;;8.40;99.90;;;;;;5052983;28;20029;-92
2022/11/26 03:20:48;;;;;;;19.95;2.28;;;8.40;99.90;;;;;;5054234;28;20086;-92
2022/11/26 03:23:14;;;;;;;16.95;2.05;;;8.30;99.90;;;;;;5053828;28;20021;-93
2022/11/26 03:25:40;;;;;;;16.15;2.58;;;8.30;99.90;;;;;;5052391;28;20029;-93
2022/11/26 03:28:06;;;;;;;13.50;2.15;;;8.30;99.90;;;;;;5052651;28;20029;-93
2022/11/26 03:30:31;;;;;;;15.38;1.98;;;8.30;99.90;;;;;;5052221;28;20024;-92
2022/11/26 03:32:57;;;;;;;17.27;4.43;;;8.20;99.90;;;;;;5052447;28;20028;-92
2022/11/26 03:35:23;;;;;;;17.08;1.83;;;8.20;99.90;;;;;;5052783;28;20032;-93
2022/11/26 03:37:49;;;;;;;13.40;2.67;;;8.20;99.90;;;;;;5052222;28;20025;-93
2022/11/26 03:40:15;;;;;;;12.75;2.30;;;8.20;99.90;;;;;;5052471;28;20040;-93
2022/11/26 03:42:42;;;;;;;19.98;2.80;;;8.10;99.90;;;;;;5052083;28;20066;-92
2022/11/26 03:45:08;;;;;;;15.95;3.47;;;8.10;99.90;;;;;;5051986;28;20036;-94
2022/11/26 03:47:33;;;;;;;16.45;3.65;;;8.10;99.90;;;;;;5051832;28;20116;-93
2022/11/26 03:49:59;;;;;;;17.00;1.92;;;8.10;99.90;;;;;;5052263;28;20033;-93
2022/11/26 03:52:25;;;;;;;13.52;2.30;;;8.10;99.90;;;;;;5051739;28;20053;-92
2022/11/26 03:54:51;;;;;;;11.27;1.92;;;8.10;99.90;;;;;;5052699;28;20486;-92
2022/11/26 03:57:16;;;;;;;23.08;2.63;;;8.10;99.90;;;;;;5052056;28;20134;-93
2022/11/26 03:59:42;;;;;;;23.55;3.28;;;8.10;99.90;;;;;;5052090;28;20049;-93
2022/11/26 04:02:08;;;;;;;16.67;2.03;;;8.10;99.90;;;;;;5052330;28;20029;-93
2022/11/26 04:04:33;;;;;;;8.82;1.77;;;8.00;99.90;;;;;;5052329;28;20055;-93
2022/11/26 04:06:59;;;;;;;20.13;3.05;;;8.10;99.90;;;;;;5052233;28;20056;-94
2022/11/26 04:09:25;;;;;;;14.85;2.10;;;8.10;99.90;;;;;;5051565;28;20082;-93
2022/11/26 04:11:50;;;;;;;18.10;3.05;;;8.00;99.90;;;;;;5052101;28;20021;-93
2022/11/26 04:14:16;;;;;;;14.45;2.72;;;8.00;99.90;;;;;;5052102;28;20025;-93
2022/11/26 04:16:42;;;;;;;18.00;2.90;;;8.00;99.90;;;;;;5056506;28;20390;-94
2022/11/26 04:19:08;;;;;;;22.70;1.95;;;8.00;99.90;;;;;;5056285;28;20068;-92
2022/11/26 04:21:33;;;;;;;17.50;1.85;;;8.00;99.90;;;;;;5056483;28;20025;-91
2022/11/26 04:23:59;;;;;;;15.15;1.95;;;8.00;99.90;;;;;;5057832;28;20036;-92
2022/11/26 04:26:24;;;;;;;19.98;2.20;;;8.00;99.90;;;;;;5056107;28;20026;-94
2022/11/26 04:28:50;;;;;;;42.70;3.72;;;8.00;99.90;;;;;;5056654;28;20047;-91
2022/11/26 04:31:16;;;;;;;14.57;3.00;;;8.00;99.90;;;;;;5056454;28;20082;-94
2022/11/26 04:33:42;;;;;;;22.02;2.05;;;8.10;99.90;;;;;;5056624;28;20021;-92
2022/11/26 04:36:08;;;;;;;20.30;2.80;;;8.10;99.90;;;;;;5055792;28;20029;-93
2022/11/26 04:38:34;;;;;;;34.22;3.63;;;8.10;99.90;;;;;;5055479;28;20045;-93
2022/11/26 04:41:00;;;;;;;22.58;2.80;;;8.10;99.90;;;;;;5053829;28;20112;-93
2022/11/26 04:43:25;;;;;;;21.55;3.03;;;8.10;99.90;;;;;;5055678;28;20509;-93
2022/11/26 04:45:51;;;;;;;23.70;2.33;;;8.10;99.90;;;;;;5056325;28;20083;-92
2022/11/26 04:48:17;;;;;;;20.42;2.33;;;8.00;99.90;;;;;;5055846;28;20027;-93
2022/11/26 04:50:43;;;;;;;21.25;3.17;;;8.10;99.90;;;;;;5057051;28;20428;-93
2022/11/26 04:53:08;;;;;;;17.08;2.33;;;8.00;99.90;;;;;;5055178;28;20032;-93
2022/11/26 04:55:34;;;;;;;23.17;2.47;;;8.00;99.90;;;;;;5055218;28;20032;-92
2022/11/26 04:57:59;;;;;;;34.20;2.53;;;8.00;99.90;;;;;;5055157;28;20024;-93
2022/11/26 05:00:25;;;;;;;28.17;2.97;;;8.00;99.90;;;;;;5055709;28;20468;-93
2022/11/26 05:02:51;;;;;;;19.45;2.78;;;8.00;99.90;;;;;;5055038;28;20033;-92
2022/11/26 05:05:17;;;;;;;18.58;2.65;;;7.90;99.90;;;;;;5055540;28;20054;-93
2022/11/26 05:07:42;;;;;;;19.33;2.70;;;7.90;99.90;;;;;;5055374;28;20382;-93
2022/11/26 05:10:09;;;;;;;16.13;2.72;;;7.90;99.90;;;;;;5055067;28;20025;-93
2022/11/26 05:12:35;;;;;;;23.98;3.00;;;7.80;99.90;;;;;;5054376;28;20055;-92
2022/11/26 05:15:01;;;;;;;20.45;2.63;;;7.80;99.90;;;;;;5057038;28;20032;-92
2022/11/26 05:17:27;;;;;;;23.23;3.55;;;7.80;99.90;;;;;;5060049;28;20029;-93
2022/11/26 05:19:53;;;;;;;22.63;3.65;;;7.80;99.90;;;;;;5059387;28;20082;-91
2022/11/26 05:22:18;;;;;;;24.15;3.42;;;7.80;99.90;;;;;;5057867;28;20120;-92
2022/11/26 05:24:44;;;;;;;17.27;2.92;;;7.80;99.90;;;;;;5058857;28;20053;-92
2022/11/26 05:27:10;;;;;;;28.13;2.78;;;7.70;99.90;;;;;;5058033;28;20047;-92
2022/11/26 05:29:36;;;;;;;27.50;3.45;;;7.70;99.90;;;;;;5055890;28;20033;-92
2022/11/26 05:32:01;;;;;;;27.85;3.90;;;7.70;99.90;;;;;;5055918;28;20021;-92
2022/11/26 05:34:27;;;;;;;21.48;3.17;;;7.60;99.90;;;;;;5055296;28;20120;-92
2022/11/26 05:36:53;;;;;;;20.35;3.25;;;7.60;99.90;;;;;;5055016;28;20025;-92
2022/11/26 05:39:18;;;;;;;23.55;3.40;;;7.60;99.90;;;;;;5054710;28;20125;-90
2022/11/26 05:41:44;;;;;;;25.83;3.72;;;7.60;99.90;;;;;;5054391;28;20024;-92
2022/11/26 05:44:09;;;;;;;18.85;5.47;;;7.60;99.90;;;;;;5054637;28;20035;-92
2022/11/26 05:46:40;;;;;;;29.17;6.13;;;7.60;99.90;;;;;;5054468;28;20375;-92
2022/11/26 05:49:06;;;;;;;25.42;4.03;;;7.50;99.90;;;;;;5055682;28;20057;-90
2022/11/26 05:51:31;;;;;;;25.92;4.68;;;7.50;99.90;;;;;;5054808;28;20494;-91
2022/11/26 05:53:57;;;;;;;21.77;4.35;;;7.50;99.90;;;;;;5055295;28;20036;-91
2022/11/26 05:56:23;;;;;;;24.27;6.80;;;7.50;99.90;;;;;;5055407;28;20068;-91
2022/11/26 05:58:49;;;;;;;17.70;4.90;;;7.50;99.90;;;;;;5053861;28;20044;-91
2022/11/26 06:01:15;;;;;;;30.58;6.40;;;7.50;99.90;;;;;;5055344;28;20040;-92
2022/11/26 06:03:40;;;;;;;21.23;7.53;;;7.50;99.90;;;;;;5056088;28;20021;-91
2022/11/26 06:06:06;;;;;;;31.15;6.45;;;7.40;99.90;;;;;;5055690;28;20658;-90
2022/11/26 06:08:32;;;;;;;26.05;6.93;;;7.40;99.90;;;;;;5056059;28;20554;-91
2022/11/26 06:10:58;;;;;;;24.48;7.32;;;7.50;99.90;;;;;;5055430;28;20056;-93
2022/11/26 06:13:24;;;;;;;22.20;6.63;;;7.50;99.90;;;;;;5056392;28;20163;-92
2022/11/26 06:15:50;;;;;;;23.88;6.72;;;7.50;99.90;;;;;;5055556;28;20048;-93
2022/11/26 06:18:16;;;;;;;27.42;7.07;;;7.50;99.90;;;;;;5055354;28;20091;-94
2022/11/26 06:20:48;;;;;;;28.67;7.13;;;7.50;99.90;;;;;;5054646;28;20033;-94
2022/11/26 06:23:13;;;;;;;29.98;7.28;;;7.50;99.90;;;;;;5054697;28;20116;-92
2022/11/26 06:25:40;;;;;;;27.98;7.72;;;7.50;99.90;;;;;;5054345;28;20067;-92
2022/11/26 06:28:06;;;;;;;31.58;7.45;;;7.50;99.90;;;;;;5053281;28;20020;-93
2022/11/26 06:30:31;;;;;;;29.50;7.32;;;7.50;99.90;;;;;;5053061;28;20413;-94
2022/11/26 06:32:58;;;;;;;34.10;6.93;;;7.50;99.90;;;;;;5054491;28;20181;-90
2022/11/26 06:35:24;;;;;;;39.22;9.07;;;7.50;99.90;;;;;;5054025;28;20025;-93
2022/11/26 06:37:50;;;;;;;27.15;6.88;;;7.50;99.90;;;;;;5054796;28;20056;-92
2022/11/26 06:40:18;;;;;;;24.77;6.88;;;7.60;99.90;;;;;;5054532;28;20029;-94
2022/11/26 06:42:51;;;;;;;28.58;7.63;;;7.60;99.90;;;;;;5049813;28;20028;-92
2022/11/26 06:45:18;;;;;;;31.48;7.82;;;7.60;99.90;;;;;;5053922;28;20067;-92
2022/11/26 06:47:46;;;;;;;35.45;7.28;;;7.60;99.90;;;;;;5054249;28;20089;-92
2022/11/26 06:50:12;;;;;;;24.08;6.90;;;7.60;99.90;;;;;;5054297;28;20596;-92
2022/11/26 06:52:39;;;;;;;40.47;8.48;;;7.70;99.90;;;;;;5053843;28;20025;-93
2022/11/26 06:55:05;;;;;;;35.30;7.82;;;7.70;99.90;;;;;;5052209;28;20023;-92
2022/11/26 06:57:31;;;;;;;31.83;7.32;;;7.70;99.90;;;;;;5056756;28;20028;-92
2022/11/26 06:59:57;;;;;;;28.40;7.47;;;7.70;99.90;;;;;;5054318;28;20053;-92
2022/11/26 07:02:23;;;;;;;41.00;8.88;;;7.70;99.90;;;;;;5054605;28;20059;-93
2022/11/26 07:04:48;;;;;;;22.35;6.15;;;7.70;99.90;;;;;;5054498;28;20231;-94
2022/11/26 07:07:14;;;;;;;28.83;6.43;;;7.70;99.90;;;;;;5055641;28;20039;-94
2022/11/26 07:09:40;;;;;;;19.35;7.60;;;7.70;99.90;;;;;;5055656;28;20516;-94
2022/11/26 07:12:05;;;;;;;32.10;7.50;;;7.70;99.90;;;;;;5050052;28;20048;-94
2022/11/26 07:14:31;;;;;;;35.22;7.43;;;7.70;99.90;;;;;;5065069;28;20040;-94
2022/11/26 07:16:57;;;;;;;29.63;6.72;;;7.70;99.90;;;;;;5061909;28;20028;-94
2022/11/26 07:19:23;;;;;;;27.20;6.40;;;7.70;99.90;;;;;;5062305;28;20087;-94
2022/11/26 07:21:48;;;;;;;19.25;5.30;;;7.60;99.90;;;;;;5048845;28;20025;-93
2022/11/26 07:24:15;;;;;;;24.73;5.57;;;7.60;99.90;;;;;;5061722;28;20087;-94
2022/11/26 07:26:41;;;;;;;27.70;5.68;;;7.60;99.90;;;;;;5052562;28;20031;-93
2022/11/26 07:29:06;;;;;;;24.63;5.80;;;7.60;99.90;;;;;;5057160;28;20101;-93
2022/11/26 07:31:32;;;;;;;24.95;5.28;;;7.60;99.90;;;;;;5041017;28;20029;-94
2022/11/26 07:33:58;;;;;;;34.42;6.53;;;7.60;99.90;;;;;;5044895;28;20035;-92
2022/11/26 07:36:26;;;;;;;17.38;4.57;;;7.50;99.90;;;;;;5057158;28;20033;-94
2022/11/26 07:39:00;;;;;;;17.10;3.75;;;7.50;99.90;;;;;;5055410;28;20021;-92
2022/11/26 07:41:27;;;;;;;25.58;4.78;;;7.50;99.90;;;;;;5046556;28;20119;-94
2022/11/26 07:43:53;;;;;;;29.42;5.13;;;7.50;99.90;;;;;;5060375;28;20087;-91
2022/11/26 07:46:21;;;;;;;26.50;5.30;;;7.50;99.90;;;;;;5048320;28;20013;-93
2022/11/26 07:48:47;;;;;;;22.40;4.63;;;7.50;99.90;;;;;;5064730;28;20037;-91
2022/11/26 07:51:20;;;;;;;27.25;4.88;;;7.50;99.90;;;;;;5046209;28;20053;-93
2022/11/26 07:53:46;;;;;;;22.83;4.43;;;7.50;99.90;;;;;;5042881;28;20364;-90
2022/11/26 07:56:15;;;;;;;25.27;5.50;;;7.50;99.90;;;;;;5044218;28;20310;-95
2022/11/26 07:58:41;;;;;;;19.45;4.65;;;7.50;99.90;;;;;;5042223;28;20049;-94
2022/11/26 08:01:29;;;;;;;16.65;4.20;;;7.50;99.90;;;;;;5042418;28;20456;-91
2022/11/26 08:03:55;;;;;;;28.08;5.32;;;7.50;99.90;;;;;;5046380;28;20479;-92
2022/11/26 08:06:23;;;;;;;28.35;4.65;;;7.60;99.90;;;;;;5051874;28;20183;-94
2022/11/26 08:08:49;;;;;;;25.00;4.13;;;7.60;99.90;;;;;;5044380;28;20025;-93
2022/11/26 08:11:24;;;;;;;12.93;3.85;;;7.60;99.90;;;;;;5065849;28;20031;-93
2022/11/26 08:13:56;;;;;;;20.30;4.10;;;7.60;99.90;;;;;;5045410;28;20032;-93
2022/11/26 08:16:22;;;;;;;20.65;3.47;;;7.60;99.90;;;;;;5052879;28;20434;-93
2022/11/26 08:18:51;;;;;;;18.33;4.78;;;7.60;99.90;;;;;;5068181;28;20029;-91
2022/11/26 08:21:16;;;;;;;22.75;4.28;;;7.60;99.90;;;;;;5053130;28;20500;-94
2022/11/26 08:23:42;;;;;;;19.80;3.65;;;7.60;99.90;;;;;;5045057;28;20093;-93
2022/11/26 08:26:14;;;;;;;26.38;4.13;;;7.60;99.90;;;;;;5051006;28;20026;-92
2022/11/26 08:28:44;;;;;;;21.10;4.25;;;7.60;99.90;;;;;;5047828;28;20049;-95
2022/11/26 08:31:12;;;;;;;14.30;3.95;;;7.70;99.90;;;;;;5065255;28;20021;-92
2022/11/26 08:33:38;;;;;;;25.13;3.72;;;7.70;99.90;;;;;;5059539;28;20017;-93
2022/11/26 08:36:04;;;;;;;27.98;4.03;;;7.70;99.90;;;;;;5071526;28;20151;-94
2022/11/26 08:38:30;;;;;;;25.15;3.35;;;7.70;99.90;;;;;;5058912;28;20033;-92
2022/11/26 08:41:05;;;;;;;17.75;4.38;;;7.70;99.90;;;;;;5069899;28;20036;-91
2022/11/26 08:43:31;;;;;;;28.17;3.70;;;7.70;99.90;;;;;;5053153;28;20025;-95
2022/11/26 08:45:58;;;;;;;25.13;3.75;;;7.70;99.90;;;;;;5052326;28;20088;-92
2022/11/26 08:48:26;;;;;;;28.13;3.95;;;7.80;99.90;;;;;;5059806;28;20029;-95
2022/11/26 08:51:00;;;;;;;26.30;3.33;;;7.70;99.90;;;;;;5059962;28;20386;-93
2022/11/26 08:53:27;;;;;;;26.88;4.40;;;7.70;99.90;;;;;;5054188;28;20024;-91
2022/11/26 08:55:57;;;;;;;24.70;3.88;;;7.80;99.90;;;;;;5056540;28;20111;-93
2022/11/26 08:58:23;;;;;;;18.95;3.55;;;7.80;99.90;;;;;;5059247;28;20466;-91
2022/11/26 09:00:48;;;;;;;21.70;5.68;;;7.80;99.90;;;;;;5054973;28;20052;-91
2022/11/26 09:03:14;;;;;;;34.53;4.50;;;7.80;99.90;;;;;;5058588;28;20025;-91
2022/11/26 09:05:39;;;;;;;22.63;3.38;;;7.80;99.90;;;;;;5057790;28;20032;-92
2022/11/26 09:08:05;;;;;;;21.83;3.40;;;7.80;99.90;;;;;;5058293;28;20390;-92
2022/11/26 09:10:31;;;;;;;27.42;3.47;;;7.90;99.90;;;;;;5074133;28;20036;-92
2022/11/26 09:12:56;;;;;;;31.65;3.25;;;7.90;99.90;;;;;;5058303;28;20020;-94
2022/11/26 09:15:22;;;;;;;23.45;3.13;;;7.90;99.90;;;;;;5061516;28;20032;-90
2022/11/26 09:17:48;;;;;;;30.58;3.58;;;7.90;99.90;;;;;;5061645;28;20031;-92
2022/11/26 09:20:13;;;;;;;31.45;5.07;;;8.00;99.90;;;;;;5077540;28;20097;-93
2022/11/26 09:22:39;;;;;;;21.58;3.80;;;8.00;99.90;;;;;;5058823;28;20017;-94
2022/11/26 09:25:05;;;;;;;23.58;3.35;;;8.00;99.90;;;;;;5059316;28;20123;-92
2022/11/26 09:27:31;;;;;;;21.80;2.97;;;8.00;99.90;;;;;;5058069;28;20067;-91
2022/11/26 09:29:57;;;;;;;25.08;3.88;;;8.00;99.90;;;;;;5058789;28;20028;-93
2022/11/26 09:32:22;;;;;;;19.42;3.35;;;8.00;99.90;;;;;;5063039;28;20057;-92
2022/11/26 09:34:48;;;;;;;24.83;4.10;;;8.10;99.90;;;;;;5060243;28;20029;-91
2022/11/26 09:37:13;;;;;;;23.85;3.20;;;8.10;99.90;;;;;;5060195;28;20025;-93
2022/11/26 09:39:39;;;;;;;19.17;2.80;;;8.10;99.90;;;;;;5056452;28;20123;-95
2022/11/26 09:42:30;;;;;;;17.02;3.05;;;8.10;99.90;;;;;;5072048;28;20026;-94
2022/11/26 09:45:16;;;;;;;20.77;3.40;;;8.10;99.90;;;;;;5071449;28;20071;-92
2022/11/26 09:47:45;;;;;;;15.02;2.90;;;8.10;99.90;;;;;;5057655;28;20048;-92
2022/11/26 09:50:13;;;;;;;21.98;3.72;;;8.20;99.90;;;;;;5073175;28;20033;-94
2022/11/26 09:52:45;;;;;;;19.02;3.20;;;8.20;99.90;;;;;;5073130;28;20025;-95
2022/11/26 09:55:10;;;;;;;21.40;4.07;;;8.20;99.90;;;;;;5074387;28;20029;-93
2022/11/26 09:57:43;;;;;;;23.52;3.67;;;8.20;99.90;;;;;;5072863;28;20028;-94
2022/11/26 10:00:22;;;;;;;32.30;3.53;;;8.30;99.90;;;;;;5069121;28;20045;-93
2022/11/26 10:02:51;;;;;;;29.02;3.33;;;8.30;99.90;;;;;;5067868;28;20063;-93
2022/11/26 10:05:18;;;;;;;26.10;3.45;;;8.40;99.90;;;;;;5056780;28;20087;-95
2022/11/26 10:07:58;;;;;;;21.23;2.95;;;8.40;99.90;;;;;;5060193;28;20024;-95
2022/11/26 10:10:51;;;;;;;18.45;3.80;;;8.40;99.90;;;;;;5055482;28;20035;-95
2022/11/26 10:13:29;;;;;;;23.52;4.05;;;8.40;99.90;;;;;;5017313;28;20077;-95
2022/11/26 10:16:19;;;;;;;17.58;2.97;;;8.50;99.90;;;;;;5002093;28;20034;-93
2022/11/26 10:19:07;;;;;;;30.73;3.77;;;8.50;99.90;;;;;;5015536;28;20045;-94
2022/11/26 10:21:41;;;;;;;26.48;4.05;;;8.50;99.90;;;;;;5002490;28;20078;-92
2022/11/26 10:24:33;;;;;;;18.05;3.20;;;8.50;99.90;;;;;;5014615;28;20124;-94
2022/11/26 10:27:08;;;;;;;28.48;3.70;;;8.60;99.90;;;;;;5016383;28;20022;-96
2022/11/26 10:29:40;;;;;;;24.38;4.82;;;8.60;99.90;;;;;;5015873;28;20081;-95
2022/11/26 10:32:24;;;;;;;27.95;3.80;;;8.60;99.90;;;;;;5014034;28;20056;-94
2022/11/26 10:34:54;;;;;;;23.15;3.35;;;8.60;99.90;;;;;;5015238;28;20025;-94
2022/11/26 10:37:22;;;;;;;20.20;3.42;;;8.60;99.90;;;;;;5017427;28;20084;-94
2022/11/26 10:39:48;;;;;;;27.83;3.97;;;8.70;99.90;;;;;;5015262;28;20042;-94
2022/11/26 10:42:20;;;;;;;31.40;4.18;;;8.70;99.90;;;;;;5013876;28;20037;-95
2022/11/26 10:44:51;;;;;;;26.25;4.20;;;8.70;99.90;;;;;;5014683;28;20037;-95
2022/11/26 10:47:26;;;;;;;28.13;4.50;;;8.70;99.90;;;;;;5016422;28;20539;-95
2022/11/26 10:50:14;;;;;;;31.73;5.75;;;8.70;99.90;;;;;;5031713;28;20441;-93
2022/11/26 10:52:39;;;;;;;31.40;4.25;;;8.70;99.90;;;;;;5044367;28;20033;-94
2022/11/26 10:55:22;;;;;;;23.38;3.30;;;8.70;99.90;;;;;;5054911;28;20093;-95
2022/11/26 10:57:55;;;;;;;24.48;3.67;;;8.70;99.90;;;;;;5057217;28;20082;-94
2022/11/26 11:00:36;;;;;;;19.83;3.92;;;8.70;99.90;;;;;;5054317;28;20045;-92
2022/11/26 11:03:04;;;;;;;24.20;3.65;;;8.70;99.90;;;;;;5054384;28;20120;-95
2022/11/26 11:05:31;;;;;;;25.85;4.20;;;8.70;99.90;;;;;;5053963;28;20025;-93
2022/11/26 11:07:57;;;;;;;26.52;4.60;;;8.70;99.90;;;;;;5060573;28;20024;-94
2022/11/26 11:10:24;;;;;;;25.40;3.90;;;8.60;99.90;;;;;;5070056;28;20060;-94
2022/11/26 11:12:59;;;;;;;21.52;3.83;;;8.70;99.90;;;;;;5068241;28;20032;-94
2022/11/26 11:15:27;;;;;;;27.13;3.90;;;8.70;99.90;;;;;;5064669;28;20029;-93
2022/11/26 11:17:57;;;;;;;21.58;3.42;;;8.60;99.90;;;;;;5063183;28;20027;-92
2022/11/26 11:20:29;;;;;;;22.37;3.90;;;8.60;99.90;;;;;;5056519;28;20033;-93
2022/11/26 11:23:21;;;;;;;32.17;4.95;;;8.60;99.90;;;;;;5055934;28;20100;-94
2022/11/26 11:26:01;;;;;;;20.48;4.65;;;8.70;99.90;;;;;;5054076;28;20037;-93
2022/11/26 11:28:31;;;;;;;31.38;4.45;;;8.70;99.90;;;;;;5054766;28;20189;-91
2022/11/26 11:31:07;;;;;;;23.20;3.47;;;8.70;99.90;;;;;;5053731;28;20029;-92
2022/11/26 11:33:32;;;;;;;26.02;4.20;;;8.70;99.90;;;;;;5053324;28;20029;-92
2022/11/26 11:36:24;;;;;;;26.88;3.78;;;8.70;99.90;;;;;;5053876;28;20092;-93
2022/11/26 11:38:52;;;;;;;27.58;4.53;;;8.80;99.90;;;;;;5053890;28;20124;-94
2022/11/26 11:41:29;;;;;;;21.77;3.63;;;8.80;99.90;;;;;;5056796;28;20489;-92
2022/11/26 11:44:19;;;;;;;20.77;4.07;;;8.80;99.90;;;;;;5054145;28;20049;-94
2022/11/26 11:47:25;;;;;;;24.92;4.10;;;8.80;99.90;;;;;;5054884;28;20438;-94
2022/11/26 11:50:18;;;;;;;29.88;4.18;;;8.90;99.90;;;;;;4996666;28;20483;-92
2022/11/26 11:53:08;;;;;;;28.05;3.78;;;8.90;99.90;;;;;;4996933;28;20030;-94
2022/11/26 11:56:11;;;;;;;22.15;3.92;;;8.90;99.90;;;;;;5013411;28;20476;-94
2022/11/26 11:58:51;;;;;;;25.20;4.57;;;8.90;99.90;;;;;;4997287;28;20050;-93
2022/11/26 12:01:38;;;;;;;26.17;3.85;;;8.90;99.90;;;;;;4997236;28;20136;-94
2022/11/26 12:04:22;;;;;;;21.80;3.70;;;9.00;99.90;;;;;;4995847;28;20029;-92
2022/11/26 12:07:00;;;;;;;25.02;3.50;;;9.00;99.90;;;;;;4995652;28;20753;-95
2022/11/26 12:09:46;;;;;;;30.23;3.55;;;9.00;99.90;;;;;;4995654;28;20034;-92
2022/11/26 12:12:43;;;;;;;26.35;2.97;;;9.00;99.90;;;;;;4995633;28;20565;-92
2022/11/26 12:15:20;;;;;;;17.67;3.13;;;9.10;99.90;;;;;;4991525;28;20045;-94
2022/11/26 12:18:25;;;;;;;23.23;3.47;;;9.10;99.90;;;;;;4995505;28;20373;-92
2022/11/26 12:21:08;;;;;;;28.08;5.20;;;9.10;99.90;;;;;;4994526;28;20231;-94
2022/11/26 12:23:43;;;;;;;30.58;4.43;;;9.20;99.90;;;;;;4995190;28;20022;-93
2022/11/26 12:26:24;;;;;;;29.73;4.22;;;9.20;99.90;;;;;;5025173;28;20483;-93
2022/11/26 12:29:09;;;;;;;23.33;3.17;;;9.20;99.90;;;;;;5052555;28;20033;-93
2022/11/26 12:31:55;;;;;;;25.77;3.45;;;9.20;99.90;;;;;;5052504;28;20037;-94
2022/11/26 12:34:36;;;;;;;23.35;3.25;;;9.30;99.90;;;;;;5052165;28;20021;-94
2022/11/26 12:37:02;;;;;;;26.48;4.88;;;9.30;99.90;;;;;;5056536;28;20021;-92
2022/11/26 12:39:40;;;;;;;25.92;4.88;;;9.30;99.90;;;;;;5056602;28;20033;-93
2022/11/26 12:42:11;;;;;;;16.35;2.50;;;9.40;99.90;;;;;;5057680;28;20068;-91
2022/11/26 12:44:40;;;;;;;23.88;3.75;;;9.30;99.90;;;;;;5056863;28;20037;-93
2022/11/26 12:47:29;;;;;;;34.55;5.70;;;9.40;99.90;;;;;;5056896;28;20025;-93
2022/11/26 12:50:16;;;;;;;30.23;3.30;;;9.40;99.90;;;;;;5056361;28;20044;-94
2022/11/26 12:52:57;;;;;;;30.92;3.22;;;9.40;99.90;;;;;;5057388;28;20021;-93
2022/11/26 12:55:42;;;;;;;26.52;5.45;;;9.40;99.90;;;;;;5057750;28;20029;-95
2022/11/26 12:58:16;;;;;;;26.23;3.08;;;9.50;99.90;;;;;;5057867;28;20180;-93
2022/11/26 13:00:42;;;;;;;26.10;3.95;;;9.60;99.90;;;;;;5056318;28;20136;-93
2022/11/26 13:03:17;;;;;;;28.02;2.80;;;9.60;99.90;;;;;;5056620;28;20085;-92
2022/11/26 13:06:18;;;;;;;20.98;2.63;;;9.70;99.90;;;;;;5057080;28;20111;-93